Time;durP1;ratioP1;P1;durP2;ratioP2;P2;SDS_P1;SDS_P2;PMS_P1;PMS_P2;Temp;Humidity;BMP_temperature;BMP_pressure;BME280_temperature;BME280_humidity;BME280_pressure;Samples;Min_cycle;Max_cycle;Signal;HPM_P1;HPM_P2
2021/01/30 00:00:33;;;;;;;9.07;2.42;;;;;;;15.44;45.65;99664.34;5080018;28;20034;-84
2021/01/30 00:02:59;;;;;;;11.35;3.30;;;;;;;15.46;45.59;99662.00;5078957;28;20083;-85
2021/01/30 00:05:25;;;;;;;15.55;3.38;;;;;;;15.62;45.05;99653.59;5079934;28;20082;-85
2021/01/30 00:07:52;;;;;;;10.77;2.85;;;;;;;15.58;44.74;99646.44;5078288;28;20079;-85
2021/01/30 00:10:20;;;;;;;10.82;4.88;;;;;;;15.40;45.13;99640.66;5078808;28;20024;-85
2021/01/30 00:12:45;;;;;;;7.85;2.38;;;;;;;15.22;44.97;99629.41;5062175;28;20620;-85
2021/01/30 00:15:13;;;;;;;15.70;3.45;;;;;;;15.61;44.50;99627.22;5078287;28;20135;-83
2021/01/30 00:17:39;;;;;;;12.07;2.72;;;;;;;15.36;45.00;99635.13;5079592;28;20036;-84
2021/01/30 00:20:06;;;;;;;11.68;3.15;;;;;;;15.39;44.96;99615.09;5078955;28;20039;-85
2021/01/30 00:22:32;;;;;;;15.50;3.08;;;;;;;15.19;45.29;99616.41;5078721;28;20036;-84
2021/01/30 00:24:57;;;;;;;11.23;3.22;;;;;;;14.96;45.89;99603.50;5078664;28;20601;-84
2021/01/30 00:27:23;;;;;;;20.90;5.22;;;;;;;15.24;45.86;99591.31;5078489;28;20052;-84
2021/01/30 00:29:50;;;;;;;17.27;3.90;;;;;;;15.42;45.57;99592.34;5078741;28;20051;-85
2021/01/30 00:32:17;;;;;;;10.32;3.40;;;;;;;15.06;45.98;99577.31;5058228;28;20035;-84
2021/01/30 00:34:44;;;;;;;12.30;3.70;;;;;;;14.94;46.19;99592.06;5075411;28;20085;-85
2021/01/30 00:37:13;;;;;;;14.50;4.25;;;;;;;14.80;45.98;99578.09;5076406;28;20029;-84
2021/01/30 00:39:39;;;;;;;10.85;3.35;;;;;;;14.87;46.23;99586.44;5075350;28;20090;-84
2021/01/30 00:42:07;;;;;;;11.68;2.60;;;;;;;15.21;45.35;99581.84;5075074;28;20024;-84
2021/01/30 00:44:33;;;;;;;12.63;4.18;;;;;;;14.95;46.02;99590.09;5075229;28;20117;-85
2021/01/30 00:46:59;;;;;;;18.13;4.63;;;;;;;15.18;45.10;99573.53;5075301;28;20025;-85
2021/01/30 00:49:25;;;;;;;13.68;3.58;;;;;;;15.10;45.17;99572.63;5075189;28;20031;-85
2021/01/30 00:51:51;;;;;;;15.02;3.88;;;;;;;14.89;45.49;99559.38;5075177;28;20036;-84
2021/01/30 00:54:17;;;;;;;12.35;3.03;;;;;;;14.72;46.07;99562.63;5076177;28;20016;-85
2021/01/30 00:56:43;;;;;;;9.73;3.20;;;;;;;14.63;46.08;99571.13;5075077;28;20176;-83
2021/01/30 00:59:09;;;;;;;12.57;3.65;;;;;;;14.57;46.28;99560.81;5074636;28;20123;-85
2021/01/30 01:01:40;;;;;;;11.90;2.90;;;;;;;14.66;45.57;99553.09;5074396;28;20056;-85
2021/01/30 01:04:06;;;;;;;11.10;3.53;;;;;;;15.09;44.88;99548.25;5076376;28;20021;-85
2021/01/30 01:06:33;;;;;;;19.25;5.40;;;;;;;14.99;45.01;99556.00;5076049;28;20062;-85
2021/01/30 01:09:00;;;;;;;15.65;4.35;;;;;;;15.19;45.19;99553.13;5074778;28;20105;-84
2021/01/30 01:11:26;;;;;;;14.15;3.40;;;;;;;14.88;45.59;99544.03;5074840;28;20051;-84
2021/01/30 01:13:51;;;;;;;10.68;4.10;;;;;;;14.66;46.00;99556.69;5074902;28;20475;-83
2021/01/30 01:16:18;;;;;;;17.00;4.13;;;;;;;14.92;45.65;99544.09;5074697;28;20056;-84
2021/01/30 01:18:45;;;;;;;14.23;3.90;;;;;;;14.87;45.81;99531.44;5074725;28;20041;-86
2021/01/30 01:21:11;;;;;;;15.35;4.45;;;;;;;14.85;45.76;99527.47;5074678;28;20037;-85
2021/01/30 01:23:37;;;;;;;13.05;3.60;;;;;;;14.89;45.85;99540.13;5075751;28;20580;-85
2021/01/30 01:26:03;;;;;;;16.13;3.85;;;;;;;14.70;45.79;99509.97;5074432;28;20035;-84
2021/01/30 01:28:29;;;;;;;17.08;4.60;;;;;;;14.76;46.00;99510.47;5075544;28;20028;-85
2021/01/30 01:30:54;;;;;;;16.20;3.70;;;;;;;14.22;46.93;99509.59;5074325;28;20025;-86
2021/01/30 01:33:20;;;;;;;13.35;4.20;;;;;;;14.50;46.71;99519.47;5074377;28;20115;-84
2021/01/30 01:35:45;;;;;;;26.33;6.22;;;;;;;14.86;46.10;99510.59;5074520;28;20033;-85
2021/01/30 01:38:11;;;;;;;14.10;4.18;;;;;;;14.39;47.30;99495.34;5074213;28;20036;-85
2021/01/30 01:40:40;;;;;;;16.15;4.10;;;;;;;14.61;46.72;99503.97;5074329;28;20028;-85
2021/01/30 01:43:13;;;;;;;20.48;4.90;;;;;;;14.43;47.35;99500.88;5073083;28;20055;-85
2021/01/30 01:45:39;;;;;;;11.43;3.95;;;;;;;14.56;46.21;99490.53;5074008;28;20029;-84
2021/01/30 01:48:26;;;;;;;13.20;4.40;;;;;;;14.52;46.81;99503.44;5074016;28;20025;-84
2021/01/30 01:50:52;;;;;;;17.73;4.60;;;;;;;14.43;47.43;99490.72;5074329;28;20471;-86
2021/01/30 01:53:26;;;;;;;10.45;4.15;;;;;;;14.25;47.82;99486.88;5057475;28;20127;-84
2021/01/30 01:56:00;;;;;;;18.17;4.55;;;;;;;14.31;47.23;99490.09;5073920;28;20032;-82
2021/01/30 01:58:27;;;;;;;19.23;4.68;;;;;;;14.43;47.19;99478.91;5074902;28;20036;-85
2021/01/30 02:00:54;;;;;;;20.38;5.75;;;;;;;14.56;47.03;99485.03;5073744;28;20033;-85
2021/01/30 02:03:21;;;;;;;15.82;5.00;;;;;;;14.55;47.15;99473.22;5074839;28;20510;-84
2021/01/30 02:05:46;;;;;;;20.90;6.70;;;;;;;14.43;47.55;99465.16;5073726;28;20560;-85
2021/01/30 02:08:16;;;;;;;16.08;4.95;;;;;;;14.80;46.73;99462.59;5073996;28;20029;-84
2021/01/30 02:10:45;;;;;;;17.75;4.07;;;;;;;14.74;46.84;99468.81;5074625;28;20498;-83
2021/01/30 02:13:18;;;;;;;24.42;4.72;;;;;;;14.41;47.50;99462.00;5073538;28;20387;-84
2021/01/30 02:15:46;;;;;;;17.90;5.97;;;;;;;14.59;47.60;99454.06;5057026;28;20515;-84
2021/01/30 02:18:59;;;;;;;14.50;4.93;;;;;;;14.41;47.99;99457.28;5073303;28;20033;-85
2021/01/30 02:21:49;;;;;;;15.65;4.75;;;;;;;14.93;46.76;99447.44;5074839;28;20029;-85
2021/01/30 02:24:36;;;;;;;10.63;3.97;;;;;;;14.30;47.71;99442.59;5073519;28;20020;-85
2021/01/30 02:27:07;;;;;;;17.63;5.57;;;;;;;14.54;47.22;99427.69;5074092;28;20051;-82
2021/01/30 02:30:10;;;;;;;17.20;4.95;;;;;;;14.49;47.73;99433.47;5073924;28;20028;-85
2021/01/30 02:33:04;;;;;;;19.02;5.70;;;;;;;14.68;47.66;99425.13;5059536;28;20032;-83
2021/01/30 02:35:39;;;;;;;18.48;6.70;;;;;;;14.75;47.95;99429.94;5074125;28;20028;-81
2021/01/30 02:38:19;;;;;;;21.40;7.13;;;;;;;14.96;46.16;99421.97;5072436;28;20115;-82
2021/01/30 02:40:50;;;;;;;17.25;6.53;;;;;;;14.43;48.11;99418.44;5072557;28;20056;-85
2021/01/30 02:43:21;;;;;;;19.23;7.88;;;;;;;14.47;48.11;99418.53;5072930;28;20023;-84
2021/01/30 02:45:54;;;;;;;19.00;7.90;;;;;;;14.53;47.71;99411.56;5072513;28;20024;-84
2021/01/30 02:48:26;;;;;;;33.25;8.95;;;;;;;14.49;48.13;99405.22;5073656;28;20020;-81
2021/01/30 02:50:57;;;;;;;19.52;8.10;;;;;;;14.48;47.95;99398.91;5073871;28;20021;-82
2021/01/30 02:53:27;;;;;;;14.75;7.15;;;;;;;14.51;47.56;99392.69;5073261;28;20118;-82
2021/01/30 02:55:57;;;;;;;15.93;6.82;;;;;;;14.75;46.92;99383.19;5072245;28;20093;-85
2021/01/30 02:58:27;;;;;;;;;;;;;;;14.59;47.74;99377.09;5072687;28;20062;-86
2021/01/30 03:00:57;;;;;;;13.93;5.78;;;;;;;14.44;47.79;99384.31;5072279;28;19947;-84
2021/01/30 03:03:23;;;;;;;23.20;5.78;;;;;;;14.46;47.76;99364.75;5073244;28;20597;-82
2021/01/30 03:05:51;;;;;;;19.67;7.15;;;;;;;14.44;48.04;99370.59;5073615;28;20052;-82
2021/01/30 03:08:31;;;;;;;22.02;6.90;;;;;;;14.88;47.09;99367.22;5073357;28;20036;-82
2021/01/30 03:11:10;;;;;;;21.60;6.80;;;;;;;14.45;48.42;99363.91;5072414;28;20025;-81
2021/01/30 03:14:14;;;;;;;33.13;8.38;;;;;;;14.52;48.22;99357.75;5072135;28;20036;-81
2021/01/30 03:16:40;;;;;;;26.38;7.32;;;;;;;14.49;48.18;99350.25;5071020;28;20416;-82
2021/01/30 03:19:16;;;;;;;16.30;6.50;;;;;;;14.03;49.20;99345.66;5072423;28;20526;-84
2021/01/30 03:21:44;;;;;;;15.07;5.25;;;;;;;14.26;48.71;99344.78;5073274;28;20031;-82
2021/01/30 03:24:10;;;;;;;22.95;7.05;;;;;;;14.10;48.86;99347.72;5072134;28;20056;-82
2021/01/30 03:26:44;;;;;;;24.20;6.82;;;;;;;13.82;49.22;99329.63;5055668;28;20119;-86
2021/01/30 03:29:11;;;;;;;19.80;6.80;;;;;;;13.99;48.76;99333.84;5072371;28;20090;-85
2021/01/30 03:31:38;;;;;;;20.48;6.47;;;;;;;14.24;48.78;99323.19;5072204;28;20024;-82
2021/01/30 03:34:05;;;;;;;14.70;5.22;;;;;;;13.75;49.70;99326.81;5071770;28;20017;-82
2021/01/30 03:36:30;;;;;;;24.70;7.22;;;;;;;14.15;49.00;99331.72;5071797;28;20115;-82
2021/01/30 03:38:56;;;;;;;15.50;6.45;;;;;;;14.21;48.76;99323.13;5346184;22;20103;-80
2021/01/30 03:41:22;;;;;;;28.08;7.57;;;;;;;14.33;48.68;99312.72;5031073;28;20128;-79
2021/01/30 03:43:47;;;;;;;25.70;6.68;;;;;;;14.35;49.11;99313.13;5032236;28;20040;-80
2021/01/30 03:46:13;;;;;;;19.83;6.88;;;;;;;13.96;49.76;99318.09;5032320;28;20025;-80
2021/01/30 03:48:39;;;;;;;18.95;6.10;;;;;;;13.92;49.66;99310.97;5030593;28;20029;-79
2021/01/30 03:51:04;;;;;;;19.63;6.47;;;;;;;14.19;49.39;99307.03;5030424;28;20034;-79
2021/01/30 03:53:30;;;;;;;25.70;7.07;;;;;;;13.87;50.50;99295.59;5030875;28;20112;-79
2021/01/30 03:55:56;;;;;;;23.77;6.80;;;;;;;14.03;50.21;99298.16;5031904;28;20406;-79
2021/01/30 03:58:22;;;;;;;16.42;6.47;;;;;;;13.86;50.42;99303.03;5030838;28;20124;-79
2021/01/30 04:00:47;;;;;;;29.42;8.07;;;;;;;14.34;49.24;99286.03;5030906;28;20502;-79
2021/01/30 04:03:14;;;;;;;19.08;7.07;;;;;;;13.79;50.29;99286.47;5047060;28;20068;-80
2021/01/30 04:05:39;;;;;;;26.13;7.55;;;;;;;13.96;50.27;99278.84;5031120;28;20390;-79
2021/01/30 04:08:05;;;;;;;20.73;6.93;;;;;;;13.84;50.57;99288.91;5035849;28;20033;-79
2021/01/30 04:10:35;;;;;;;26.90;6.82;;;;;;;13.54;51.34;99291.56;5034540;28;20030;-79
2021/01/30 04:13:03;;;;;;;22.80;6.53;;;;;;;13.93;50.41;99272.16;5035808;28;20113;-79
2021/01/30 04:15:33;;;;;;;24.20;7.22;;;;;;;13.75;51.10;99280.13;5035735;28;20558;-78
2021/01/30 04:17:59;;;;;;;17.13;6.68;;;;;;;13.98;50.55;99276.50;5035600;28;20033;-79
2021/01/30 04:20:25;;;;;;;23.45;7.78;;;;;;;13.61;51.45;99274.44;5035572;28;20033;-78
2021/01/30 04:22:51;;;;;;;26.25;7.63;;;;;;;13.87;50.91;99260.69;5035536;28;20110;-79
2021/01/30 04:25:19;;;;;;;33.03;9.80;;;;;;;13.73;51.47;99268.72;5035511;28;20542;-79
2021/01/30 04:27:45;;;;;;;21.45;7.38;;;;;;;13.44;52.00;99274.91;5050823;28;20110;-79
2021/01/30 04:30:21;;;;;;;28.80;9.45;;;;;;;13.79;51.61;99258.22;5035295;28;20402;-79
2021/01/30 04:32:47;;;;;;;35.60;9.05;;;;;;;13.75;51.63;99251.88;5035371;28;20044;-79
2021/01/30 04:35:14;;;;;;;30.02;8.93;;;;;;;13.63;51.89;99255.63;5035305;28;20480;-79
2021/01/30 04:37:40;;;;;;;20.55;6.72;;;;;;;13.21;53.10;99255.72;5035171;28;20029;-79
2021/01/30 04:40:07;;;;;;;26.23;8.57;;;;;;;13.56;52.26;99255.53;5035031;28;20040;-79
2021/01/30 04:43:06;;;;;;;26.95;7.35;;;;;;;12.97;53.33;99251.38;5035439;28;20021;-78
2021/01/30 04:45:57;;;;;;;29.00;9.15;;;;;;;13.42;52.57;99258.03;5035302;28;20029;-79
2021/01/30 04:49:01;;;;;;;24.63;8.57;;;;;;;13.72;51.78;99250.66;5034730;28;20041;-79
2021/01/30 04:51:49;;;;;;;28.30;8.23;;;;;;;13.40;52.46;99239.22;5050380;28;20399;-78
2021/01/30 04:54:53;;;;;;;19.33;7.25;;;;;;;13.21;53.17;99255.72;5035068;28;20387;-79
2021/01/30 04:57:41;;;;;;;21.58;9.25;;;;;;;13.46;52.50;99251.47;5049079;28;20026;-79
2021/01/30 05:00:31;;;;;;;29.42;8.63;;;;;;;13.32;53.01;99235.56;5034525;28;20380;-79
2021/01/30 05:03:34;;;;;;;27.17;10.05;;;;;;;13.16;53.23;99250.53;5034530;28;20375;-79
2021/01/30 05:06:23;;;;;;;32.90;11.07;;;;;;;13.31;52.23;99258.66;5049769;28;20057;-79
2021/01/30 05:09:18;;;;;;;23.77;8.20;;;;;;;13.21;52.44;99244.75;5034377;28;20025;-79
2021/01/30 05:11:53;;;;;;;31.05;9.93;;;;;;;13.29;52.54;99247.25;5033114;28;20056;-79
2021/01/30 05:14:23;;;;;;;32.88;11.18;;;;;;;13.32;52.51;99238.31;5034292;28;20068;-79
2021/01/30 05:17:28;;;;;;;22.92;10.45;;;;;;;13.24;52.80;99244.84;5031599;28;20034;-79
2021/01/30 05:20:03;;;;;;;26.75;8.52;;;;;;;13.04;53.16;99241.31;5034520;28;20026;-79
2021/01/30 05:22:34;;;;;;;18.38;8.27;;;;;;;12.76;53.21;99238.06;5034524;28;20033;-79
2021/01/30 05:25:01;;;;;;;27.27;8.07;;;;;;;13.06;52.89;99232.72;5034531;28;20029;-79
2021/01/30 05:27:49;;;;;;;21.42;9.25;;;;;;;13.27;52.17;99251.53;5034329;28;20029;-79
2021/01/30 05:30:43;;;;;;;35.03;11.20;;;;;;;13.21;52.97;99239.28;5034352;28;20034;-79
2021/01/30 05:33:21;;;;;;;17.38;7.00;;;;;;;12.88;52.98;99250.81;5034318;28;20096;-79
2021/01/30 05:36:07;;;;;;;22.63;7.80;;;;;;;12.89;52.90;99233.22;5034203;28;20021;-79
2021/01/30 05:38:58;;;;;;;19.63;7.85;;;;;;;13.06;52.77;99241.75;5033931;28;20026;-79
2021/01/30 05:41:45;;;;;;;23.52;11.15;;;;;;;13.17;52.38;99250.16;5034166;28;20510;-78
2021/01/30 05:44:41;;;;;;;27.65;7.90;;;;;;;13.12;52.47;99247.72;5034122;28;20032;-79
2021/01/30 05:47:13;;;;;;;24.58;9.50;;;;;;;13.18;52.27;99248.22;5025807;28;20075;-79
2021/01/30 05:50:12;;;;;;;24.40;8.27;;;;;;;13.22;51.84;99251.81;5032734;28;20128;-80
2021/01/30 05:52:38;;;;;;;27.55;7.85;;;;;;;13.04;52.13;99249.56;5025813;28;20061;-80
2021/01/30 05:55:22;;;;;;;27.52;8.40;;;;;;;13.00;52.36;99250.66;5033898;28;20071;-79
2021/01/30 05:57:48;;;;;;;26.77;7.35;;;;;;;13.05;52.43;99255.81;5032609;28;20045;-79
2021/01/30 06:00:19;;;;;;;16.52;7.38;;;;;;;12.78;52.83;99249.50;5032598;28;20029;-79
2021/01/30 06:03:05;;;;;;;18.17;6.82;;;;;;;12.56;53.18;99237.31;5032530;28;20025;-79
2021/01/30 06:05:42;;;;;;;21.85;7.72;;;;;;;12.66;52.93;99249.63;5033711;28;20026;-79
2021/01/30 06:08:19;;;;;;;27.23;9.48;;;;;;;12.77;52.58;99254.19;5032515;28;20033;-79
2021/01/30 06:10:47;;;;;;;24.75;9.60;;;;;;;12.78;53.11;99260.44;5033547;28;20029;-79
2021/01/30 06:13:18;;;;;;;27.20;8.13;;;;;;;12.98;52.63;99237.28;5033476;28;20131;-78
2021/01/30 06:15:52;;;;;;;24.75;9.00;;;;;;;13.17;51.94;99258.41;5033376;28;20049;-79
2021/01/30 06:18:34;;;;;;;24.27;7.93;;;;;;;13.18;51.68;99265.47;5033395;28;20494;-78
2021/01/30 06:21:21;;;;;;;26.55;8.48;;;;;;;13.03;52.47;99255.41;5032050;28;20029;-77
2021/01/30 06:24:10;;;;;;;26.50;9.77;;;;;;;12.78;52.55;99266.72;5033339;28;20383;-78
2021/01/30 06:26:47;;;;;;;12.80;6.32;;;;;;;12.36;53.96;99277.63;5032065;28;20029;-77
2021/01/30 06:29:38;;;;;;;29.52;8.32;;;;;;;12.66;53.13;99261.38;5032575;28;20041;-78
2021/01/30 06:32:33;;;;;;;38.38;8.60;;;;;;;13.16;51.97;99273.28;5024585;28;20125;-77
2021/01/30 06:35:23;;;;;;;33.50;9.98;;;;;;;12.80;52.42;99265.56;5027365;28;20087;-78
2021/01/30 06:38:02;;;;;;;21.27;8.05;;;;;;;12.48;53.54;99257.53;5031836;28;20479;-78
2021/01/30 06:40:31;;;;;;;21.52;8.00;;;;;;;12.46;52.98;99270.78;5032912;28;20046;-77
2021/01/30 06:43:11;;;;;;;36.63;10.13;;;;;;;12.42;53.41;99273.44;5033023;28;20057;-78
2021/01/30 06:45:42;;;;;;;26.00;7.40;;;;;;;12.37;53.81;99260.03;5032832;28;20368;-79
2021/01/30 06:48:27;;;;;;;23.50;7.75;;;;;;;12.70;52.36;99270.47;5033036;28;20036;-78
2021/01/30 06:50:53;;;;;;;23.80;7.10;;;;;;;12.71;52.34;99263.84;5031578;28;20029;-79
2021/01/30 06:53:28;;;;;;;25.33;6.60;;;;;;;12.62;52.37;99278.91;5032812;28;20036;-79
2021/01/30 06:55:54;;;;;;;20.38;8.20;;;;;;;12.53;52.47;99270.91;5032755;28;20026;-78
2021/01/30 06:58:35;;;;;;;19.42;7.40;;;;;;;12.86;51.52;99275.06;5031410;28;20400;-79
2021/01/30 07:01:18;;;;;;;34.58;8.60;;;;;;;12.86;51.77;99277.81;5032795;28;20072;-78
2021/01/30 07:03:52;;;;;;;24.05;8.15;;;;;;;12.55;52.49;99271.38;5032675;28;20025;-78
2021/01/30 07:06:31;;;;;;;25.05;6.57;;;;;;;12.81;51.70;99289.06;5032749;28;20025;-78
2021/01/30 07:09:22;;;;;;;24.40;7.23;;;;;;;12.27;53.23;99282.53;5032657;28;20018;-78
2021/01/30 07:11:55;;;;;;;21.02;6.45;;;;;;;12.25;53.44;99284.84;5001498;28;20049;-78
2021/01/30 07:14:35;;;;;;;22.17;6.07;;;;;;;12.53;52.99;99284.59;5032598;28;20030;-78
2021/01/30 07:17:05;;;;;;;33.22;7.25;;;;;;;12.57;52.99;99293.72;5032614;28;20361;-78
2021/01/30 07:20:10;;;;;;;26.92;6.05;;;;;;;12.35;53.18;99294.41;5031303;28;20026;-78
2021/01/30 07:22:56;;;;;;;19.83;6.60;;;;;;;12.78;52.32;99294.13;5031280;28;20029;-78
2021/01/30 07:25:27;;;;;;;25.33;8.10;;;;;;;12.82;51.92;99294.19;5032500;28;20029;-78
2021/01/30 07:28:02;;;;;;;20.60;5.50;;;;;;;12.35;53.21;99272.50;5031288;28;20057;-78
2021/01/30 07:31:03;;;;;;;28.92;8.38;;;;;;;12.53;52.76;99305.75;5032295;28;20096;-78
2021/01/30 07:33:50;;;;;;;27.10;6.95;;;;;;;12.11;53.51;99295.47;5027457;28;20045;-78
2021/01/30 07:36:28;;;;;;;35.35;8.23;;;;;;;12.43;52.54;99318.06;5032389;28;20163;-78
2021/01/30 07:39:09;;;;;;;23.10;6.07;;;;;;;12.34;52.68;99309.28;5032162;28;20059;-77
2021/01/30 07:41:58;;;;;;;25.02;6.38;;;;;;;12.14;53.25;99309.25;5034548;28;20031;-77
2021/01/30 07:44:41;;;;;;;16.88;5.20;;;;;;;11.85;54.06;99321.47;5036464;28;20031;-77
2021/01/30 07:47:06;;;;;;;15.65;5.82;;;;;;;12.05;53.20;99332.50;5036222;28;20387;-77
2021/01/30 07:49:35;;;;;;;25.08;5.80;;;;;;;12.17;52.70;99322.22;5034938;28;20037;-77
2021/01/30 07:52:12;;;;;;;27.38;6.63;;;;;;;12.16;52.61;99317.88;5036196;28;20107;-77
2021/01/30 07:54:48;;;;;;;30.52;6.95;;;;;;;11.98;53.43;99324.13;5036128;28;20034;-77
2021/01/30 07:57:31;;;;;;;27.10;9.15;;;;;;;12.20;53.14;99335.19;5035955;28;20583;-77
2021/01/30 08:00:09;;;;;;;21.05;6.22;;;;;;;12.07;53.24;99322.78;5034846;28;20063;-77
2021/01/30 08:02:59;;;;;;;26.00;5.53;;;;;;;11.73;53.99;99331.72;5035004;28;20029;-78
2021/01/30 08:05:48;;;;;;;28.17;6.18;;;;;;;11.97;53.05;99323.31;5026024;28;20034;-79
2021/01/30 08:08:25;;;;;;;23.17;6.13;;;;;;;11.80;53.51;99342.84;5013026;28;20045;-79
2021/01/30 08:11:19;;;;;;;17.33;5.80;;;;;;;12.11;53.03;99342.03;5016263;28;20041;-79
2021/01/30 08:13:50;;;;;;;23.95;6.03;;;;;;;12.28;52.15;99332.63;5026258;28;20120;-79
2021/01/30 08:16:31;;;;;;;23.40;6.88;;;;;;;12.33;52.17;99335.88;5032129;28;20083;-77
2021/01/30 08:19:05;;;;;;;25.50;7.15;;;;;;;12.27;52.26;99334.56;5030195;28;20123;-78
2021/01/30 08:21:56;;;;;;;22.23;4.38;;;;;;;11.97;52.57;99315.13;5031903;28;20056;-76
2021/01/30 08:24:31;;;;;;;14.70;4.55;;;;;;;12.00;52.49;99349.19;5031797;28;20032;-78
2021/01/30 08:27:16;;;;;;;16.90;4.78;;;;;;;11.62;53.52;99356.88;5029434;28;20044;-78
2021/01/30 08:29:45;;;;;;;30.15;5.15;;;;;;;12.00;53.11;99362.88;5030194;28;20492;-78
2021/01/30 08:32:23;;;;;;;16.50;5.32;;;;;;;11.84;53.22;99324.59;5034815;28;20033;-76
2021/01/30 08:34:49;;;;;;;18.60;6.25;;;;;;;11.72;53.55;99341.09;5035138;28;20026;-80
2021/01/30 08:37:14;;;;;;;31.98;6.28;;;;;;;11.98;52.76;99371.44;5033095;28;20080;-80
2021/01/30 08:40:08;;;;;;;24.38;6.10;;;;;;;11.47;53.67;99365.88;5035050;28;20053;-84
2021/01/30 08:42:38;;;;;;;11.38;3.85;;;;;;;11.40;54.26;99374.69;5007275;28;20034;-79
2021/01/30 08:45:11;;;;;;;27.17;7.50;;;;;;;11.86;53.30;99368.81;5034387;28;20076;-75
2021/01/30 08:47:54;;;;;;;15.02;4.75;;;;;;;11.88;52.99;99372.00;5035038;28;20033;-77
2021/01/30 08:50:26;;;;;;;17.63;6.10;;;;;;;11.94;53.14;99376.06;5034991;28;20483;-77
2021/01/30 08:52:54;;;;;;;13.43;4.85;;;;;;;11.58;53.69;99369.69;5032663;28;20026;-80
2021/01/30 08:55:43;;;;;;;15.38;5.50;;;;;;;11.85;52.86;99389.13;5033629;28;20057;-78
2021/01/30 08:58:37;;;;;;;17.60;4.80;;;;;;;11.36;53.93;99378.47;5022422;28;20040;-77
2021/01/30 09:01:03;;;;;;;15.02;5.32;;;;;;;11.15;54.74;99383.38;5015590;28;20108;-80
2021/01/30 09:03:40;;;;;;;26.85;6.13;;;;;;;10.90;54.75;99379.97;5034533;28;20590;-77
2021/01/30 09:06:08;;;;;;;22.88;6.85;;;;;;;11.55;53.94;99378.56;5034690;28;20018;-77
2021/01/30 09:08:36;;;;;;;20.13;5.88;;;;;;;11.76;53.43;99391.22;5034649;28;20029;-78
2021/01/30 09:11:22;;;;;;;15.10;5.80;;;;;;;11.76;53.13;99399.41;5033872;28;20033;-78
2021/01/30 09:14:04;;;;;;;15.03;5.30;;;;;;;11.64;53.55;99381.16;5034663;28;20041;-78
2021/01/30 09:16:44;;;;;;;11.90;4.40;;;;;;;11.27;54.51;99395.06;5033821;28;20036;-76
2021/01/30 09:19:23;;;;;;;23.47;5.20;;;;;;;11.65;53.39;99396.44;5034481;28;20032;-76
2021/01/30 09:21:59;;;;;;;23.83;5.55;;;;;;;11.28;54.14;99398.59;5034528;28;20032;-76
2021/01/30 09:25:06;;;;;;;19.48;4.38;;;;;;;11.26;53.93;99388.00;5033648;28;20068;-76
2021/01/30 09:27:35;;;;;;;15.82;4.88;;;;;;;11.06;55.01;99419.88;5036687;28;20045;-77
2021/01/30 09:30:26;;;;;;;22.27;5.60;;;;;;;11.47;53.66;99408.84;5034250;28;20388;-77
2021/01/30 09:32:52;;;;;;;35.65;9.55;;;;;;;12.33;51.95;99411.78;5032315;28;20804;-77
2021/01/30 09:35:23;;;;;;;44.63;8.88;;;;;;;11.96;52.90;99412.09;5032838;28;20134;-76
2021/01/30 09:37:48;;;;;;;30.20;8.00;;;;;;;11.45;53.82;99403.72;5033780;28;20119;-75
2021/01/30 09:40:24;;;;;;;17.20;5.57;;;;;;;11.37;53.76;99435.56;5015975;28;20073;-78
2021/01/30 09:43:03;;;;;;;24.85;7.55;;;;;;;11.63;52.86;99434.25;5032255;28;20049;-78
2021/01/30 09:45:30;;;;;;;15.68;4.55;;;;;;;11.50;53.11;99419.88;5024144;28;20160;-78
2021/01/30 09:47:56;;;;;;;26.58;7.82;;;;;;;11.28;53.57;99428.66;5033508;28;20036;-78
2021/01/30 09:50:48;;;;;;;16.63;4.93;;;;;;;11.71;52.05;99427.03;5018255;28;20054;-80
2021/01/30 09:53:24;;;;;;;25.67;7.20;;;;;;;11.88;52.31;99443.16;5014058;28;21683;-79
2021/01/30 09:56:02;;;;;;;31.48;6.75;;;;;;;11.90;52.65;99444.38;5030086;28;20030;-80
2021/01/30 09:58:28;;;;;;;11.93;3.65;;;;;;;11.45;53.46;99433.00;5028444;28;20033;-80
2021/01/30 10:00:54;;;;;;;20.95;4.60;;;;;;;11.29;54.00;99444.72;5030773;28;20108;-77
2021/01/30 10:03:26;;;;;;;28.15;5.90;;;;;;;11.76;52.56;99451.41;5027682;28;20117;-76
2021/01/30 10:05:53;;;;;;;19.92;5.57;;;;;;;11.60;52.73;99460.41;5030674;28;20030;-77
2021/01/30 10:08:30;;;;;;;15.48;3.90;;;;;;;11.43;52.92;99471.66;5028796;28;20087;-81
2021/01/30 10:11:13;;;;;;;19.00;4.20;;;;;;;11.78;51.98;99469.06;5030157;28;20036;-78
2021/01/30 10:13:44;;;;;;;14.02;4.43;;;;;;;11.20;53.06;99478.84;5025404;28;20036;-77
2021/01/30 10:16:21;;;;;;;18.13;5.33;;;;;;;11.54;53.07;99471.94;5033500;28;20037;-81
2021/01/30 10:18:51;;;;;;;31.05;8.95;;;;;;;12.14;51.62;99483.69;5024684;28;20111;-78
2021/01/30 10:21:43;;;;;;;19.58;3.70;;;;;;;11.76;52.40;99478.78;5032537;28;20037;-75
2021/01/30 10:24:21;;;;;;;24.67;4.90;;;;;;;11.57;52.59;99487.69;5021959;28;20369;-81
2021/01/30 10:26:50;;;;;;;43.40;10.73;;;;;;;12.17;51.67;99497.47;5029458;28;20045;-82
2021/01/30 10:29:18;;;;;;;35.97;8.93;;;;;;;12.06;52.15;99484.66;5031084;28;20087;-79
2021/01/30 10:31:47;;;;;;;23.65;6.05;;;;;;;11.91;52.43;99492.50;5045717;28;20364;-79
2021/01/30 10:34:39;;;;;;;23.38;6.53;;;;;;;11.47;52.64;99501.84;5022528;28;20428;-81
2021/01/30 10:37:14;;;;;;;14.93;4.80;;;;;;;11.67;52.25;99503.56;5032416;28;20030;-77
2021/01/30 10:39:47;;;;;;;33.05;7.38;;;;;;;12.08;51.58;99512.47;5038127;28;20103;-76
2021/01/30 10:42:20;;;;;;;16.15;4.13;;;;;;;11.40;52.35;99510.63;5030532;28;20053;-81
2021/01/30 10:44:48;;;;;;;23.35;4.88;;;;;;;11.61;52.32;99522.19;5022900;28;20029;-81
2021/01/30 10:47:15;;;;;;;23.42;6.07;;;;;;;11.30;52.57;99519.34;5031910;28;20140;-80
2021/01/30 10:49:41;;;;;;;19.13;5.13;;;;;;;11.50;52.11;99523.03;5021513;28;20017;-80
2021/01/30 10:52:09;;;;;;;18.93;5.53;;;;;;;11.57;52.00;99534.97;5030897;28;20056;-81
2021/01/30 10:54:36;;;;;;;19.47;6.63;;;;;;;11.94;51.49;99532.09;5022012;28;20044;-81
2021/01/30 10:57:16;;;;;;;12.85;4.97;;;;;;;11.26;52.95;99532.09;5030980;28;20083;-78
2021/01/30 10:59:56;;;;;;;18.67;5.97;;;;;;;11.35;52.33;99535.50;5023349;28;20133;-80
2021/01/30 11:02:26;;;;;;;24.02;7.10;;;;;;;10.84;53.71;99560.56;5031403;28;20037;-81
2021/01/30 11:05:19;;;;;;;37.92;9.88;;;;;;;11.16;53.68;99541.59;5039167;28;20116;-80
2021/01/30 11:08:04;;;;;;;24.52;4.93;;;;;;;11.43;52.80;99537.31;5026170;28;20033;-78
2021/01/30 11:10:47;;;;;;;32.75;6.43;;;;;;;11.61;52.02;99556.94;5030304;28;20021;-79
2021/01/30 11:13:19;;;;;;;32.53;7.20;;;;;;;11.93;51.92;99571.53;5023050;28;20056;-80
2021/01/30 11:15:45;;;;;;;13.10;5.43;;;;;;;10.71;54.52;99556.22;5031275;28;20025;-76
2021/01/30 11:18:32;;;;;;;20.98;5.05;;;;;;;10.95;54.13;99577.28;5034983;28;20049;-79
2021/01/30 11:21:00;;;;;;;18.77;5.97;;;;;;;10.99;54.04;99589.13;5030138;28;20460;-80
2021/01/30 11:23:46;;;;;;;23.50;7.05;;;;;;;11.11;53.07;99569.19;5021585;28;20033;-80
2021/01/30 11:26:16;;;;;;;21.60;5.43;;;;;;;11.04;53.28;99575.25;5029589;28;20112;-79
2021/01/30 11:28:43;;;;;;;22.48;5.32;;;;;;;11.22;52.86;99566.75;5021805;28;20079;-79
2021/01/30 11:31:10;;;;;;;28.58;9.32;;;;;;;11.78;52.68;99572.25;5029971;28;20029;-79
2021/01/30 11:33:36;;;;;;;30.05;9.43;;;;;;;12.21;51.47;99572.28;5014499;28;20037;-78
2021/01/30 11:36:05;;;;;;;40.78;8.50;;;;;;;11.87;52.35;99583.91;5030119;28;20026;-79
2021/01/30 11:38:31;;;;;;;40.88;12.38;;;;;;;12.29;51.67;99594.38;5020427;28;20041;-80
2021/01/30 11:40:59;;;;;;;36.47;8.75;;;;;;;11.75;52.97;99590.19;5024349;28;20053;-79
2021/01/30 11:43:25;;;;;;;20.63;6.45;;;;;;;11.37;53.36;99577.78;5021514;28;20028;-79
2021/01/30 11:45:52;;;;;;;16.48;5.93;;;;;;;11.45;53.39;99584.25;5028387;28;20026;-80
2021/01/30 11:48:19;;;;;;;19.63;6.32;;;;;;;11.61;53.26;99607.00;5020529;28;20091;-80
2021/01/30 11:50:46;;;;;;;18.17;6.18;;;;;;;11.40;53.10;99604.41;5030092;28;20032;-79
2021/01/30 11:53:18;;;;;;;34.85;9.82;;;;;;;11.39;53.52;99599.31;5021459;28;20261;-78
2021/01/30 11:55:44;;;;;;;25.15;5.93;;;;;;;11.16;54.24;99603.69;5029406;28;20028;-79
2021/01/30 11:58:11;;;;;;;20.77;7.30;;;;;;;11.81;53.04;99613.47;5021249;28;20127;-80